createdAt,value
2022-10-05T00:04:06.934Z,17.7
2022-10-05T00:09:56.249Z,21.2
2022-10-05T00:15:45.125Z,21
2022-10-05T00:21:34.067Z,20
2022-10-05T00:27:24.006Z,19.1
2022-10-05T00:33:12.339Z,17.4
2022-10-05T00:39:00.596Z,19.5
2022-10-05T00:44:49.379Z,17.9
2022-10-05T00:50:38.908Z,17.3
2022-10-05T00:56:27.465Z,18.7
2022-10-05T01:02:18.619Z,20.7
2022-10-05T01:08:08.038Z,17.5
2022-10-05T01:13:59.065Z,19.8
2022-10-05T01:19:47.767Z,20
2022-10-05T01:25:35.904Z,21.7
2022-10-05T01:31:25.355Z,25.5
2022-10-05T01:37:15.398Z,17.6
2022-10-05T01:43:03.987Z,17.6
2022-10-05T01:48:52.531Z,19.1
2022-10-05T01:54:42.537Z,20.4
2022-10-05T02:00:35.849Z,18.3
2022-10-05T02:06:24.557Z,19
2022-10-05T02:12:19.952Z,17.9
2022-10-05T02:18:12.642Z,16.5
2022-10-05T02:24:03.217Z,20.1
2022-10-05T02:29:53.110Z,21.8
2022-10-05T02:35:47.126Z,19.1
2022-10-05T02:41:37.327Z,20.6
2022-10-05T02:47:27.245Z,21.2
2022-10-05T02:53:16.318Z,19.8
2022-10-05T02:59:06.020Z,20.4
2022-10-05T03:05:05.243Z,22.8
2022-10-05T03:10:53.960Z,24.9
2022-10-05T03:16:45.643Z,25.2
2022-10-05T03:22:35.395Z,24.4
2022-10-05T03:28:24.944Z,21.4
2022-10-05T03:34:14.859Z,21.6
2022-10-05T03:40:04.209Z,22.9
2022-10-05T03:45:54.737Z,24.3
2022-10-05T03:51:44.100Z,25.9
2022-10-05T03:57:32.864Z,27.6
2022-10-05T04:03:23.085Z,24.5
2022-10-05T04:09:20.365Z,23.7
2022-10-05T04:15:26.130Z,26.6
2022-10-05T04:21:24.004Z,26.1
2022-10-05T04:27:13.718Z,28.1
2022-10-05T04:33:07.390Z,29
2022-10-05T04:38:58.031Z,29.7
2022-10-05T04:44:48.984Z,24.2
2022-10-05T04:50:42.964Z,25.1
2022-10-05T04:56:33.185Z,27.7
2022-10-05T05:02:22.825Z,28.8
2022-10-05T05:08:11.934Z,27.9
2022-10-05T05:14:02.478Z,27.6
2022-10-05T05:19:55.072Z,26.7
2022-10-05T05:25:47.148Z,29.4
2022-10-05T05:31:36.979Z,26
2022-10-05T05:37:26.622Z,24.6
2022-10-05T05:43:17.300Z,26.3
2022-10-05T05:49:06.438Z,26.8
2022-10-05T05:54:58.082Z,31.4
2022-10-05T06:00:51.180Z,31.1
2022-10-05T06:06:40.301Z,30.7
2022-10-05T06:12:28.794Z,30.3
2022-10-05T06:18:17.806Z,32.7
2022-10-05T06:24:08.360Z,30.9
2022-10-05T06:29:58.196Z,31.4
2022-10-05T06:35:48.732Z,31.5
2022-10-05T06:41:38.176Z,35.9
2022-10-05T06:47:28.495Z,40.3
2022-10-05T06:53:18.076Z,42.6
2022-10-05T06:59:08.084Z,43.3
2022-10-05T07:04:57.527Z,37.7
2022-10-05T07:10:48.469Z,38.4
2022-10-05T07:16:38.686Z,38.1
2022-10-05T07:22:37.771Z,42.6
2022-10-05T07:28:27.686Z,75.7
2022-10-05T07:34:18.467Z,34.7
2022-10-05T07:40:08.476Z,31.2
2022-10-05T07:46:00.873Z,30.3
2022-10-05T07:51:52.590Z,34.8
2022-10-05T07:57:42.710Z,25.7
2022-10-05T08:03:33.059Z,25.2
2022-10-05T08:09:23.501Z,25.1
2022-10-05T08:15:12.660Z,23.6
2022-10-05T08:21:02.466Z,23.3
2022-10-05T08:26:52.963Z,20.7
2022-10-05T08:32:42.853Z,21.1
2022-10-05T08:38:31.178Z,20
2022-10-05T08:44:21.173Z,18.3
2022-10-05T08:50:11.211Z,18.2
2022-10-05T08:56:04.640Z,15.4
2022-10-05T09:01:55.738Z,17.5
2022-10-05T09:07:45.551Z,12.8
2022-10-05T09:13:38.105Z,11.7
2022-10-05T09:19:28.056Z,10.6
2022-10-05T09:25:18.159Z,12
2022-10-05T09:31:09.662Z,10.2
2022-10-05T09:37:00.223Z,8.9
2022-10-05T09:42:51.250Z,8.3
2022-10-05T09:48:41.256Z,7.3
2022-10-05T09:54:31.185Z,7.1
2022-10-05T10:00:21.130Z,9.2
2022-10-05T10:06:12.774Z,10.4
2022-10-05T10:12:04.151Z,7.8
2022-10-05T10:17:55.062Z,12.6
2022-10-05T10:30:06.066Z,4.2
2022-10-05T10:36:08.948Z,3.5
2022-10-05T10:42:01.940Z,4.3
2022-10-05T10:47:54.470Z,4.3
2022-10-05T10:53:46.275Z,4.4
2022-10-05T10:59:39.562Z,4.1
2022-10-05T11:05:37.447Z,7.6
2022-10-05T11:11:29.228Z,4.4
2022-10-05T11:17:21.247Z,6.8
2022-10-05T11:23:13.188Z,5
2022-10-05T11:29:04.688Z,4.1
2022-10-05T11:34:59.676Z,4.2
2022-10-05T11:40:50.887Z,5.1
2022-10-05T11:46:46.066Z,4
2022-10-05T11:52:59.739Z,3.7
2022-10-05T11:58:55.928Z,4
2022-10-05T12:04:47.554Z,3.5
2022-10-05T12:10:39.775Z,3.6
2022-10-05T12:16:31.197Z,5
2022-10-05T12:22:24.967Z,4.4
2022-10-05T12:28:22.823Z,4
2022-10-05T12:34:17.999Z,4.6
2022-10-05T12:40:22.309Z,3.5
2022-10-05T12:46:20.584Z,3.9
2022-10-05T12:52:27.748Z,6.6
2022-10-05T12:58:44.188Z,2.8
2022-10-05T13:04:43.626Z,4.1
2022-10-05T13:10:46.270Z,5.3
2022-10-05T13:16:40.140Z,3
2022-10-05T13:22:36.497Z,3.7
2022-10-05T13:28:29.497Z,4.6
2022-10-05T13:34:22.228Z,3.8
2022-10-05T13:40:14.842Z,4
2022-10-05T13:46:08.067Z,14.2
2022-10-05T13:52:02.532Z,4
2022-10-05T13:57:57.466Z,3.2
2022-10-05T14:03:47.576Z,4.2
2022-10-05T14:09:45.378Z,4.4
2022-10-05T14:15:48.471Z,3.4
2022-10-05T14:21:40.361Z,3.7
2022-10-05T14:27:31.555Z,3.9
2022-10-05T14:33:23.174Z,4.4
2022-10-05T14:39:22.293Z,4.8
2022-10-05T14:45:13.827Z,2.7
2022-10-05T14:51:03.885Z,5.7
2022-10-05T14:56:54.149Z,4.6
2022-10-05T15:02:45.283Z,6
2022-10-05T15:08:36.004Z,5.3
2022-10-05T15:14:29.073Z,4.8
2022-10-05T15:20:19.879Z,5.5
2022-10-05T15:26:11.899Z,5.2
2022-10-05T15:32:10.313Z,5.3
2022-10-05T15:37:59.710Z,5.3
2022-10-05T15:43:50.335Z,5.5
2022-10-05T15:49:40.711Z,5
2022-10-05T15:55:32.945Z,5.4
2022-10-05T16:01:23.528Z,4.8
2022-10-05T16:07:15.063Z,5.6
2022-10-05T16:13:06.658Z,6.4
2022-10-05T16:18:57.846Z,7.2
2022-10-05T16:24:46.851Z,6.7
2022-10-05T16:30:37.003Z,5
2022-10-05T16:36:27.522Z,5.7
2022-10-05T16:42:18.051Z,5.2
2022-10-05T16:48:08.587Z,7.7
2022-10-05T16:53:59.643Z,7.2
2022-10-05T16:59:49.994Z,7.2
2022-10-05T17:05:40.043Z,7.3
2022-10-05T17:11:30.100Z,6.1
2022-10-05T17:17:20.044Z,5.9
2022-10-05T17:23:09.980Z,9.7
2022-10-05T17:29:00.958Z,8
2022-10-05T17:34:50.847Z,9.6
2022-10-05T17:40:42.706Z,10.6
2022-10-05T17:46:32.858Z,10.6
2022-10-05T17:52:21.727Z,8.9
2022-10-05T17:58:13.606Z,11.7
2022-10-05T18:04:04.280Z,10.6
2022-10-05T18:09:53.978Z,11
2022-10-05T18:15:44.211Z,13.1
2022-10-05T18:21:34.056Z,12.4
2022-10-05T18:27:26.441Z,6.7
2022-10-05T18:33:20.423Z,6.2
2022-10-05T18:39:10.804Z,8.7
2022-10-05T18:45:01.577Z,6.9
2022-10-05T18:50:55.984Z,13.1
2022-10-05T18:56:48.013Z,7.9
2022-10-05T19:02:39.087Z,6.5
2022-10-05T19:08:31.492Z,5.1
2022-10-05T19:14:25.787Z,6.4
2022-10-05T19:20:16.075Z,11
2022-10-05T19:26:06.357Z,32.7
2022-10-05T19:31:56.238Z,20.1
2022-10-05T19:37:46.355Z,14.8
2022-10-05T19:43:36.802Z,9.7
2022-10-05T19:49:27.302Z,8.2
2022-10-05T19:55:19.314Z,10.5
2022-10-05T20:01:11.057Z,7.4
2022-10-05T20:07:03.740Z,6.7
2022-10-05T20:12:55.545Z,6
2022-10-05T20:18:44.881Z,8.3
2022-10-05T20:24:36.137Z,7.9
2022-10-05T20:30:25.989Z,6.7
2022-10-05T20:36:17.849Z,7.3
2022-10-05T20:42:07.853Z,7.2
2022-10-05T20:47:59.371Z,7.4
2022-10-05T20:53:51.452Z,5.8
2022-10-05T20:59:41.761Z,4.6
2022-10-05T21:05:32.572Z,8.9
2022-10-05T21:11:22.839Z,6.6
2022-10-05T21:17:13.283Z,6.7
2022-10-05T21:23:04.205Z,7.5
2022-10-05T21:28:56.861Z,7.4
2022-10-05T21:34:47.236Z,7.5
2022-10-05T21:40:38.414Z,6.7
2022-10-05T21:46:30.185Z,5.9
2022-10-05T21:52:23.322Z,7.8
2022-10-05T21:58:16.180Z,6.3
2022-10-05T22:04:08.761Z,9
2022-10-05T22:10:02.575Z,8.1
2022-10-05T22:15:55.234Z,7.6
2022-10-05T22:21:47.476Z,8.7
2022-10-05T22:27:38.835Z,8.5
2022-10-05T22:33:29.831Z,9.3
2022-10-05T22:39:20.202Z,8
2022-10-05T22:45:10.930Z,8.8
2022-10-05T22:51:03.090Z,7.3
2022-10-05T22:56:55.619Z,8.1
2022-10-05T23:02:46.317Z,7.6
2022-10-05T23:08:37.226Z,7.6
2022-10-05T23:14:27.946Z,6.3
2022-10-05T23:20:18.302Z,3.1
2022-10-05T23:26:09.631Z,4.2
2022-10-05T23:32:00.989Z,5.8
2022-10-05T23:37:51.847Z,2.3
2022-10-05T23:43:43.514Z,5.1
2022-10-05T23:49:35.511Z,2.9
2022-10-05T23:55:26.578Z,3.5
